Aviation Digital Data Service (ADDS)

Output produced by METARs form (1803 UTC 19 October 2017)
found at http://www.aviationweather.gov/adds/metars/
 
MRLB 191800Z 16006KT 9999 FEW030 BKN130 30/25 A2977 NOSIG
MRLB 191700Z 1918/2018 08008KT 9999 FEW035 BKN120 TX31/1921Z TN22/2011Z 
     TEMPO 1922/2001 15007KT 
     TEMPO 2010/2014 VRB02KT BCFG
       
MRPV 191800Z 08015KT CAVOK 24/13 A2998 NOSIG
MRPV 191700Z 1918/2018 10010KT 9999 FEW035 TX27/1919Z TN19/2010Z 
     TEMPO 1921/1924 29005KT RA
       
MRLM 191700Z 30003KT 9999 FEW015 OVC090 26/24 A2984
MRLM 191700Z 1918/2018 05007KT 9999 FEW030 TX27/1920Z TN23/2011Z 
     FM192300 VRB02KT 9999 SCT025 BKN090 
     TEMPO 2006/2014 27007KT RA BKN020
       
MROC 191800Z 13010G20KT 090V160 CAVOK 27/16 A2995 NOSIG
MROC 191700Z 1918/2018 25007KT 9999 FEW030 SCT120 TX28/1918Z TN19/2010Z 
     BECMG 1919/1921 FEW025TCU 
     TEMPO 1921/1923 SHRA SCT020TCU 
     TEMPO 2000/2003 VRB02KT 5000 BR SCT003 
     BECMG 2003/2005 06006KT